Time;durP1;ratioP1;P1;durP2;ratioP2;P2;SDS_P1;SDS_P2;PMS_P1;PMS_P2;Temp;Humidity;BMP_temperature;BMP_pressure;BME280_temperature;BME280_humidity;BME280_pressure;Samples;Min_cycle;Max_cycle;Signal;HPM_P1;HPM_P2
2021/03/11 00:01:26;;;;;;;8.43;7.40;;;;;;;9.83;42.05;95104.59;6880856;28;20275;-74
2021/03/11 00:04:47;;;;;;;11.10;7.97;;;;;;;9.82;42.56;95087.00;6884744;28;20235;-74
2021/03/11 00:08:08;;;;;;;9.23;8.23;;;;;;;9.78;43.07;95090.06;6912954;28;20224;-74
2021/03/11 00:11:28;;;;;;;9.67;8.10;;;;;;;9.76;43.14;95090.19;6904109;28;20235;-74
2021/03/11 00:14:49;;;;;;;8.20;7.40;;;;;;;9.75;43.34;95082.41;6899904;28;20207;-75
2021/03/11 00:18:10;;;;;;;8.17;6.67;;;;;;;9.69;42.93;95075.81;6916217;28;20208;-73
2021/03/11 00:21:31;;;;;;;5.87;5.27;;;;;;;9.73;41.05;95077.22;6911955;28;20232;-73
2021/03/11 00:24:51;;;;;;;6.07;4.50;;;;;;;9.81;39.81;95060.63;6884706;28;20229;-73
2021/03/11 00:28:11;;;;;;;5.67;4.80;;;;;;;9.91;38.30;95072.09;6923598;28;20225;-73
2021/03/11 00:31:32;;;;;;;5.90;5.00;;;;;;;10.01;37.45;95077.44;6910039;28;20561;-74
2021/03/11 00:34:52;;;;;;;6.57;4.70;;;;;;;10.09;36.81;95075.78;6916098;28;20281;-74
2021/03/11 00:38:13;;;;;;;5.87;4.37;;;;;;;10.14;35.53;95076.19;6923561;28;20326;-73
2021/03/11 00:41:35;;;;;;;5.60;4.37;;;;;;;10.17;35.64;95069.78;6909573;28;20221;-74
2021/03/11 00:44:55;;;;;;;5.37;4.10;;;;;;;10.17;36.36;95073.28;6901062;28;20307;-74
2021/03/11 00:48:16;;;;;;;8.03;4.37;;;;;;;10.21;37.11;95063.25;6911047;28;20215;-74
2021/03/11 00:51:39;;;;;;;6.40;5.30;;;;;;;10.20;37.70;95066.88;6906476;28;20231;-74
2021/03/11 00:54:59;;;;;;;7.93;6.83;;;;;;;10.11;38.48;95059.72;6909442;28;20290;-72
2021/03/11 00:58:20;;;;;;;8.07;6.70;;;;;;;10.03;38.80;95047.13;6908114;28;20248;-73
2021/03/11 01:01:40;;;;;;;7.83;7.03;;;;;;;10.02;39.05;95045.44;6904603;28;20224;-73
2021/03/11 01:05:01;;;;;;;7.80;6.63;;;;;;;10.05;38.61;95047.84;6908311;28;20307;-73
2021/03/11 01:08:21;;;;;;;6.20;5.57;;;;;;;10.08;38.36;95044.06;6912549;28;20679;-74
2021/03/11 01:11:44;;;;;;;5.73;4.53;;;;;;;10.04;37.70;95024.94;6889276;28;20224;-73
2021/03/11 01:15:07;;;;;;;6.03;4.37;;;;;;;10.09;37.37;95037.78;6915254;28;20284;-74
2021/03/11 01:18:27;;;;;;;5.73;3.90;;;;;;;10.13;36.24;95032.06;6902998;28;20308;-74
2021/03/11 01:21:50;;;;;;;4.33;3.63;;;;;;;10.21;36.49;95028.75;6900021;28;20491;-74
2021/03/11 01:25:13;;;;;;;3.87;3.47;;;;;;;10.29;35.44;95029.72;6910576;28;20224;-74
2021/03/11 01:28:34;;;;;;;5.60;4.30;;;;;;;10.37;35.97;95014.91;6909808;28;20224;-73
2021/03/11 01:31:54;;;;;;;4.63;3.97;;;;;;;10.40;35.33;95012.81;6903486;28;20248;-74
2021/03/11 01:35:14;;;;;;;5.00;3.47;;;;;;;10.45;35.11;95002.63;6897184;28;20224;-74
2021/03/11 01:38:37;;;;;;;5.20;3.47;;;;;;;10.50;34.52;95000.38;6905683;28;20293;-74
2021/03/11 01:42:01;;;;;;;4.37;3.53;;;;;;;10.53;34.80;95000.09;6893571;28;20227;-74
2021/03/11 01:45:24;;;;;;;4.47;3.30;;;;;;;10.54;35.02;94985.84;6911703;28;20258;-74
2021/03/11 01:48:47;;;;;;;5.13;3.43;;;;;;;10.55;35.00;94979.56;6899973;28;20564;-73
2021/03/11 01:52:08;;;;;;;5.97;3.20;;;;;;;10.60;34.55;94973.81;6896143;28;20224;-74
2021/03/11 01:55:29;;;;;;;5.20;3.27;;;;;;;10.65;33.83;94982.19;6898064;28;20225;-74
2021/03/11 01:58:49;;;;;;;6.87;3.70;;;;;;;10.68;34.30;94979.22;6893387;28;20624;-73
2021/03/11 02:02:09;;;;;;;3.60;2.90;;;;;;;10.67;34.86;94970.44;6891713;28;20732;-74
2021/03/11 02:05:30;;;;;;;6.50;3.17;;;;;;;10.68;34.42;94956.19;6906199;28;20248;-73
2021/03/11 02:08:50;;;;;;;4.20;3.70;;;;;;;10.69;34.22;94957.84;6893752;28;20715;-73
2021/03/11 02:12:24;;;;;;;4.33;3.43;;;;;;;10.68;33.54;94948.22;6891736;28;20218;-73
2021/03/11 02:15:53;;;;;;;3.90;3.50;;;;;;;10.66;34.01;94946.69;6912755;28;20204;-75
2021/03/11 02:19:41;;;;;;;8.37;4.83;;;;;;;10.59;34.84;94948.25;6910450;28;20292;-74
2021/03/11 02:23:33;;;;;;;6.43;5.67;;;;;;;10.58;34.49;94947.41;6902180;28;22457;-75
2021/03/11 02:27:11;;;;;;;5.07;4.57;;;;;;;10.57;35.12;94937.75;6912028;28;20219;-73
2021/03/11 02:30:33;;;;;;;7.57;5.03;;;;;;;10.58;35.57;94933.28;6911745;28;20232;-73
2021/03/11 02:33:55;;;;;;;7.40;5.63;;;;;;;10.57;36.13;94919.16;6910062;28;20207;-74
2021/03/11 02:37:26;;;;;;;6.70;5.53;;;;;;;10.57;36.37;94923.63;6899886;28;20216;-73
2021/03/11 02:40:51;;;;;;;6.50;4.07;;;;;;;10.53;37.39;94920.44;6909867;28;20216;-74
2021/03/11 02:44:13;;;;;;;3.97;3.57;;;;;;;10.55;38.76;94912.34;6888953;28;20225;-74
2021/03/11 02:47:35;;;;;;;4.63;3.60;;;;;;;10.55;38.33;94915.84;6909326;28;20229;-74
2021/03/11 02:50:57;;;;;;;6.53;3.60;;;;;;;10.57;38.49;94913.00;6912626;28;20224;-73
2021/03/11 02:54:20;;;;;;;3.80;3.20;;;;;;;10.57;37.43;94913.84;6881464;28;20291;-73
2021/03/11 02:57:42;;;;;;;3.43;2.97;;;;;;;10.59;37.50;94905.75;6907845;28;20222;-74
2021/03/11 03:01:05;;;;;;;5.23;3.20;;;;;;;10.55;37.43;94905.22;6906162;28;20596;-74
2021/03/11 03:04:27;;;;;;;4.60;3.13;;;;;;;10.53;37.73;94909.81;6882581;28;20231;-73
2021/03/11 03:07:49;;;;;;;5.23;3.47;;;;;;;10.53;38.40;94911.63;6904717;28;20262;-73
2021/03/11 03:11:11;;;;;;;3.80;3.43;;;;;;;10.53;39.12;94901.84;6882815;28;20227;-74
2021/03/11 03:14:32;;;;;;;6.27;3.40;;;;;;;10.51;39.33;94903.00;6886611;28;20220;-74
2021/03/11 03:17:52;;;;;;;5.37;3.40;;;;;;;10.46;39.69;94892.78;6891290;28;20336;-74
2021/03/11 03:21:13;;;;;;;4.80;3.07;;;;;;;10.50;40.55;94891.53;6910826;28;20256;-74
2021/03/11 03:24:37;;;;;;;3.57;2.80;;;;;;;10.52;41.37;94908.13;6915581;28;20243;-73
2021/03/11 03:27:57;;;;;;;2.50;2.30;;;;;;;10.56;41.62;94903.41;6895724;28;20215;-73
2021/03/11 03:31:18;;;;;;;3.37;2.50;;;;;;;10.56;42.77;94904.22;6896905;28;20224;-70
2021/03/11 03:34:38;;;;;;;7.80;2.70;;;;;;;10.48;44.34;94901.44;6904208;28;20236;-72
2021/03/11 03:37:59;;;;;;;3.73;2.60;;;;;;;10.52;44.66;94902.84;6912335;28;20246;-72
2021/03/11 03:41:20;;;;;;;4.60;2.70;;;;;;;10.50;45.68;94894.19;6912074;28;20224;-71
2021/03/11 03:44:41;;;;;;;2.57;2.30;;;;;;;10.50;45.48;94893.34;6890978;28;20232;-73
2021/03/11 03:48:03;;;;;;;2.30;2.10;;;;;;;10.56;45.67;94903.41;6903140;28;20239;-72
2021/03/11 03:51:27;;;;;;;3.13;2.57;;;;;;;10.57;45.91;94902.41;6897818;28;20727;-73
2021/03/11 03:54:48;;;;;;;3.40;2.67;;;;;;;10.63;45.94;94902.66;6898649;28;20212;-73
2021/03/11 03:58:09;;;;;;;3.50;2.50;;;;;;;10.62;45.88;94900.97;6909610;28;20714;-72
2021/03/11 04:01:32;;;;;;;5.30;2.70;;;;;;;10.65;46.06;94902.53;6890928;28;20228;-73
2021/03/11 04:04:53;;;;;;;2.87;2.57;;;;;;;10.69;46.04;94898.59;6890393;28;20312;-73
2021/03/11 04:08:15;;;;;;;4.97;2.70;;;;;;;10.70;45.78;94890.50;6911783;28;20608;-72
2021/03/11 04:11:35;;;;;;;2.83;2.37;;;;;;;10.68;46.10;94887.13;6891945;28;20223;-72
2021/03/11 04:14:56;;;;;;;2.50;2.30;;;;;;;10.72;46.10;94887.66;6904725;28;20226;-72
2021/03/11 04:18:19;;;;;;;3.07;2.57;;;;;;;10.76;46.33;94870.47;6906251;28;20217;-72
2021/03/11 04:21:41;;;;;;;3.30;3.00;;;;;;;10.76;46.83;94881.09;6901621;28;20914;-73
2021/03/11 04:25:02;;;;;;;3.33;3.00;;;;;;;10.80;47.04;94882.47;6917812;28;20612;-73
2021/03/11 04:28:24;;;;;;;3.00;2.70;;;;;;;10.84;46.73;94877.69;6916222;28;20236;-72
2021/03/11 04:31:45;;;;;;;3.23;2.60;;;;;;;10.88;46.85;94871.94;6886240;28;20223;-73
2021/03/11 04:35:08;;;;;;;2.30;2.10;;;;;;;10.90;47.24;94866.50;6902106;28;20208;-72
2021/03/11 04:38:28;;;;;;;6.63;2.57;;;;;;;10.90;47.35;94866.50;6891577;28;20216;-72
2021/03/11 04:41:53;;;;;;;2.33;2.00;;;;;;;10.91;47.28;94869.03;6895086;28;20895;-73
2021/03/11 04:45:13;;;;;;;2.90;2.50;;;;;;;10.87;47.40;94851.69;6893066;28;20220;-72
2021/03/11 04:48:34;;;;;;;3.40;2.47;;;;;;;10.82;47.76;94864.56;6916883;28;20284;-72
2021/03/11 04:51:55;;;;;;;4.60;2.70;;;;;;;10.85;47.73;94858.97;6915803;28;20227;-71
2021/03/11 04:55:16;;;;;;;2.70;2.50;;;;;;;10.85;47.67;94858.13;6898083;28;20213;-72
2021/03/11 04:58:38;;;;;;;3.43;2.30;;;;;;;10.84;48.23;94869.72;6883306;28;20208;-72
2021/03/11 05:02:00;;;;;;;3.13;2.60;;;;;;;10.84;48.31;94864.41;6896417;28;20220;-72
2021/03/11 05:05:32;;;;;;;4.50;2.63;;;;;;;10.84;48.49;94867.91;6893704;28;20267;-72
2021/03/11 05:08:55;;;;;;;3.63;2.27;;;;;;;10.84;48.61;94867.06;6891770;28;20306;-73
2021/03/11 05:12:15;;;;;;;4.30;2.33;;;;;;;10.82;48.51;94867.22;6910037;28;20324;-73
2021/03/11 05:15:36;;;;;;;2.90;2.23;;;;;;;10.84;48.45;94877.69;6873870;28;20271;-73
2021/03/11 05:18:59;;;;;;;2.73;1.80;;;;;;;10.86;48.97;94873.09;6910217;28;20215;-72
2021/03/11 05:22:19;;;;;;;3.37;2.03;;;;;;;10.92;49.01;94865.34;6901314;28;20627;-72
2021/03/11 05:25:39;;;;;;;2.37;1.90;;;;;;;10.94;48.84;94874.03;6905028;28;20952;-72
2021/03/11 05:29:00;;;;;;;4.30;1.93;;;;;;;10.93;48.83;94871.50;6913425;28;20220;-73
2021/03/11 05:32:20;;;;;;;2.80;1.60;;;;;;;10.94;48.42;94879.34;6915200;28;20223;-73
2021/03/11 05:35:41;;;;;;;1.53;1.43;;;;;;;10.98;48.88;94879.88;6912566;28;20220;-72
2021/03/11 05:39:04;;;;;;;1.40;1.20;;;;;;;11.05;48.57;94891.59;6912776;28;20235;-73
2021/03/11 05:42:27;;;;;;;1.40;1.30;;;;;;;11.12;48.43;94892.66;6886540;28;20312;-72
2021/03/11 05:45:48;;;;;;;4.77;1.73;;;;;;;11.19;48.13;94886.63;6889621;28;20617;-72
2021/03/11 05:49:08;;;;;;;2.37;1.50;;;;;;;11.27;48.13;94887.66;6894269;28;20686;-72
2021/03/11 05:52:30;;;;;;;1.60;1.10;;;;;;;11.32;48.17;94885.41;6914977;28;20228;-73
2021/03/11 05:55:50;;;;;;;1.70;1.40;;;;;;;11.36;47.81;94877.00;6893568;28;20316;-72
2021/03/11 05:59:11;;;;;;;1.67;1.50;;;;;;;11.41;48.24;94889.84;6898658;28;20212;-73
2021/03/11 06:02:34;;;;;;;1.53;1.43;;;;;;;11.42;47.95;94899.47;6891621;28;20339;-72
2021/03/11 06:05:58;;;;;;;2.60;1.50;;;;;;;11.40;48.15;94891.66;6888000;28;20596;-72
2021/03/11 06:09:19;;;;;;;3.90;1.37;;;;;;;11.43;47.65;94888.69;6887480;28;20646;-72
2021/03/11 06:12:42;;;;;;;4.40;2.03;;;;;;;11.44;48.09;94890.38;6912223;28;20220;-72
2021/03/11 06:16:06;;;;;;;4.20;1.63;;;;;;;11.47;47.77;94892.72;6896303;28;20213;-72
2021/03/11 06:19:28;;;;;;;2.67;1.63;;;;;;;11.48;47.71;94870.47;6909377;28;20227;-71
2021/03/11 06:22:48;;;;;;;1.70;1.33;;;;;;;11.52;47.96;94879.81;6891180;28;20376;-71
2021/03/11 06:26:12;;;;;;;2.17;1.27;;;;;;;11.54;47.77;94879.66;6904918;28;20213;-71
2021/03/11 06:29:40;;;;;;;1.67;1.23;;;;;;;11.55;48.16;94882.19;6896530;28;20220;-71
2021/03/11 06:33:04;;;;;;;1.40;1.23;;;;;;;11.55;48.18;94871.56;6891416;28;20964;-71
2021/03/11 06:36:29;;;;;;;1.60;1.40;;;;;;;11.58;48.50;94878.38;6898472;28;20628;-71
2021/03/11 06:39:50;;;;;;;2.67;1.03;;;;;;;11.59;48.13;94883.53;6895461;28;20220;-73
2021/03/11 06:43:12;;;;;;;1.30;1.00;;;;;;;11.64;48.57;94880.44;6877120;28;20227;-72
2021/03/11 06:46:35;;;;;;;1.70;1.20;;;;;;;11.67;48.78;94885.44;6896003;28;20223;-73
2021/03/11 06:50:01;;;;;;;1.67;1.20;;;;;;;11.70;48.61;94879.84;6915145;28;20215;-71
2021/03/11 06:53:21;;;;;;;2.17;1.30;;;;;;;11.76;48.50;94897.03;6913482;28;20225;-72
2021/03/11 06:56:45;;;;;;;1.27;1.10;;;;;;;11.77;48.24;94878.25;6889087;28;20221;-72
2021/03/11 07:00:18;;;;;;;1.10;1.00;;;;;;;11.81;48.38;94870.81;6889126;28;20243;-75
2021/03/11 07:03:43;;;;;;;2.60;1.40;;;;;;;11.84;48.21;94879.31;6911083;28;20224;-74
2021/03/11 07:07:18;;;;;;;1.20;1.10;;;;;;;11.88;48.13;94878.03;6891879;28;20262;-75
2021/03/11 07:10:38;;;;;;;2.50;1.30;;;;;;;11.94;48.20;94871.25;6883644;28;20224;-74
2021/03/11 07:14:01;;;;;;;1.90;1.10;;;;;;;12.02;48.21;94885.47;6910266;28;20241;-73
2021/03/11 07:17:24;;;;;;;2.93;1.30;;;;;;;12.13;48.00;94883.53;6897225;28;20229;-72
2021/03/11 07:20:44;;;;;;;4.20;1.53;;;;;;;12.20;48.00;94871.31;6888379;28;20223;-69
2021/03/11 07:24:04;;;;;;;1.63;1.13;;;;;;;12.30;47.94;94870.22;6910728;28;20247;-70
2021/03/11 07:27:40;;;;;;;2.30;1.03;;;;;;;12.41;47.57;94866.47;6911113;28;20231;-69
2021/03/11 07:31:01;;;;;;;1.90;1.10;;;;;;;12.55;47.44;94857.88;6888535;28;20235;-71
2021/03/11 07:34:32;;;;;;;1.10;1.00;;;;;;;12.72;47.01;94858.81;6897247;28;20224;-70
2021/03/11 07:37:56;;;;;;;4.03;1.20;;;;;;;12.98;46.71;94864.91;6883386;28;20698;-71
2021/03/11 07:41:18;;;;;;;1.63;1.33;;;;;;;13.09;46.35;94859.31;6889077;28;20221;-71
2021/03/11 07:44:38;;;;;;;1.17;1.07;;;;;;;13.10;45.81;94860.16;6891631;28;20593;-71
2021/03/11 07:48:01;;;;;;;1.60;0.90;;;;;;;13.07;45.88;94852.47;6887215;28;20933;-70
2021/03/11 07:51:25;;;;;;;1.27;1.10;;;;;;;13.06;46.17;94864.97;6888570;28;20226;-71
2021/03/11 07:54:46;;;;;;;1.00;0.77;;;;;;;13.17;46.18;94864.72;6904963;28;20681;-71
2021/03/11 07:58:13;;;;;;;1.10;1.00;;;;;;;13.26;45.91;94855.75;6891018;28;20312;-71
2021/03/11 08:01:36;;;;;;;4.07;1.17;;;;;;;13.48;45.50;94872.16;6887634;28;20228;-70
2021/03/11 08:04:59;;;;;;;1.20;1.10;;;;;;;13.71;45.23;94868.69;6909537;28;20247;-70
2021/03/11 08:08:21;;;;;;;1.20;1.10;;;;;;;13.80;44.79;94882.03;6890688;28;20209;-70
2021/03/11 08:11:48;;;;;;;0.53;0.53;;;;;;;13.90;45.32;94872.88;6901354;28;20681;-70
2021/03/11 08:15:28;;;;;;;1.33;1.00;;;;;;;14.00;45.38;94876.22;6883267;28;20217;-70
2021/03/11 08:18:52;;;;;;;1.37;0.73;;;;;;;13.92;45.74;94865.53;6889408;28;20221;-70
2021/03/11 08:22:14;;;;;;;1.10;0.50;;;;;;;13.84;46.12;94878.03;6891489;28;20228;-71
2021/03/11 08:25:37;;;;;;;0.93;0.80;;;;;;;13.81;46.29;94876.53;6906403;28;20231;-71
2021/03/11 08:28:57;;;;;;;1.20;0.80;;;;;;;13.77;46.30;94879.72;6917370;28;20315;-70
2021/03/11 08:32:49;;;;;;;2.10;0.70;;;;;;;13.67;46.68;94880.69;6894100;28;20220;-71
2021/03/11 08:36:23;;;;;;;1.50;0.80;;;;;;;13.62;47.00;94871.50;6905114;28;20223;-70
2021/03/11 08:39:44;;;;;;;0.63;0.60;;;;;;;13.53;47.01;94873.31;6909324;28;20219;-70
2021/03/11 08:43:05;;;;;;;0.70;0.63;;;;;;;13.44;47.24;94870.78;6905743;28;20256;-70
2021/03/11 08:46:50;;;;;;;0.70;0.70;;;;;;;13.40;47.54;94853.44;6900839;28;20209;-70
2021/03/11 08:50:33;;;;;;;1.10;0.63;;;;;;;13.36;47.75;94855.59;6889183;28;20255;-69
2021/03/11 08:54:03;;;;;;;2.23;0.70;;;;;;;13.37;47.67;94878.63;6905572;28;20240;-69
2021/03/11 08:57:42;;;;;;;0.60;0.60;;;;;;;13.42;47.64;94854.13;6878670;28;20773;-72
2021/03/11 09:01:04;;;;;;;0.57;0.57;;;;;;;13.39;47.79;94870.44;6891959;28;20235;-71
2021/03/11 09:04:24;;;;;;;2.27;0.80;;;;;;;13.46;48.00;94853.63;6897500;28;20236;-70
2021/03/11 09:07:45;;;;;;;0.87;0.60;;;;;;;13.61;47.94;94845.81;6911716;28;20228;-71
2021/03/11 09:11:14;;;;;;;1.10;0.80;;;;;;;13.73;47.83;94831.19;6914122;28;20217;-69
2021/03/11 09:14:35;;;;;;;0.80;0.77;;;;;;;13.72;47.73;94833.00;6897107;28;20229;-70
2021/03/11 09:17:56;;;;;;;0.73;0.70;;;;;;;13.75;47.84;94823.81;6903862;28;20686;-69
2021/03/11 09:21:16;;;;;;;1.13;0.70;;;;;;;13.78;48.12;94836.00;6913852;28;20225;-70
2021/03/11 09:24:37;;;;;;;0.83;0.50;;;;;;;13.81;48.27;94828.50;6899535;28;20604;-70
2021/03/11 09:28:02;;;;;;;1.10;0.67;;;;;;;13.74;48.84;94827.47;6896883;28;20254;-71
2021/03/11 09:31:25;;;;;;;0.63;0.63;;;;;;;13.68;49.50;94823.63;6893908;28;20221;-71
2021/03/11 09:34:57;;;;;;;0.70;0.60;;;;;;;13.69;49.70;94811.13;6894470;28;20223;-70
2021/03/11 09:38:26;;;;;;;1.07;0.70;;;;;;;13.73;49.85;94802.63;6886321;28;20220;-72
2021/03/11 09:41:47;;;;;;;0.57;0.50;;;;;;;13.78;50.16;94804.84;6870967;28;20758;-72
2021/03/11 09:45:08;;;;;;;2.57;0.70;;;;;;;13.84;50.06;94814.81;6898223;28;20255;-71
2021/03/11 09:48:30;;;;;;;0.93;0.80;;;;;;;13.86;50.10;94795.97;6883225;28;20714;-73
2021/03/11 09:51:50;;;;;;;0.83;0.80;;;;;;;13.94;50.15;94810.16;6893545;28;20216;-71
2021/03/11 09:55:11;;;;;;;0.70;0.50;;;;;;;14.00;50.18;94803.31;6886459;28;20335;-69
2021/03/11 09:58:32;;;;;;;1.80;0.53;;;;;;;14.04;50.33;94777.94;6902853;28;20228;-70
2021/03/11 10:01:53;;;;;;;3.17;0.60;;;;;;;14.14;50.61;94758.06;6913635;28;20606;-70
2021/03/11 10:05:14;;;;;;;0.80;0.60;;;;;;;14.18;50.63;94740.69;6889975;28;20606;-70
2021/03/11 10:08:39;;;;;;;0.90;0.60;;;;;;;14.22;50.47;94754.56;6888336;28;20693;-69
2021/03/11 10:11:59;;;;;;;0.60;0.60;;;;;;;14.30;50.37;94733.16;6907279;28;20721;-71
2021/03/11 10:15:20;;;;;;;2.03;0.80;;;;;;;14.43;50.34;94727.34;6896269;28;20224;-71
2021/03/11 10:19:06;;;;;;;1.53;0.60;;;;;;;14.66;49.93;94735.41;6888075;28;20250;-69
2021/03/11 10:22:29;;;;;;;0.93;0.50;;;;;;;14.85;49.32;94729.63;6906224;28;21055;-69
2021/03/11 10:26:10;;;;;;;1.57;0.80;;;;;;;14.94;48.78;94709.88;6888561;28;20229;-69
2021/03/11 10:29:35;;;;;;;1.17;0.70;;;;;;;14.98;48.33;94706.69;6918573;28;20216;-69
2021/03/11 10:32:58;;;;;;;0.80;0.50;;;;;;;14.95;48.10;94704.34;6911998;28;20235;-70
2021/03/11 10:36:22;;;;;;;1.07;0.70;;;;;;;14.97;48.33;94709.53;6905465;28;20220;-70
2021/03/11 10:39:57;;;;;;;0.80;0.70;;;;;;;15.06;48.35;94691.59;6911751;28;20708;-70
2021/03/11 10:43:27;;;;;;;1.33;0.70;;;;;;;15.25;48.32;94689.28;6882059;28;20228;-72
2021/03/11 10:46:48;;;;;;;2.67;0.70;;;;;;;15.65;47.21;94666.75;6886684;28;20217;-70
2021/03/11 10:50:19;;;;;;;0.73;0.57;;;;;;;15.99;46.66;94690.38;6895097;28;20251;-72
2021/03/11 10:53:42;;;;;;;0.60;0.60;;;;;;;16.16;45.91;94654.34;6880810;28;20212;-71
2021/03/11 10:57:07;;;;;;;0.60;0.50;;;;;;;16.20;45.41;94652.97;6909440;28;20684;-72
2021/03/11 11:00:37;;;;;;;1.07;0.67;;;;;;;16.25;45.46;94636.34;6902215;28;20257;-70
2021/03/11 11:03:59;;;;;;;0.73;0.70;;;;;;;16.35;45.65;94660.19;6888792;28;20282;-70
2021/03/11 11:07:22;;;;;;;3.67;1.30;;;;;;;16.53;45.48;94653.41;6906665;28;20217;-69
2021/03/11 11:10:43;;;;;;;5.40;2.80;;;;;;;16.59;44.86;94630.44;6909880;28;20922;-70
2021/03/11 11:14:03;;;;;;;1.30;0.70;;;;;;;16.59;45.03;94646.50;6886519;28;20722;-70
2021/03/11 11:17:24;;;;;;;2.20;0.60;;;;;;;16.68;45.02;94635.50;6906525;28;20241;-71
2021/03/11 11:20:46;;;;;;;0.60;0.50;;;;;;;16.67;44.70;94657.13;6915084;28;20232;-71
2021/03/11 11:24:07;;;;;;;2.53;0.40;;;;;;;16.63;44.37;94662.03;6914988;28;20228;-73
2021/03/11 11:27:30;;;;;;;0.50;0.50;;;;;;;16.54;45.05;94667.66;6900422;28;20224;-72
2021/03/11 11:30:51;;;;;;;1.37;0.60;;;;;;;16.41;45.39;94660.25;6883614;28;20748;-71
2021/03/11 11:34:12;;;;;;;0.70;0.70;;;;;;;16.31;45.72;94665.91;6903800;28;20256;-72
2021/03/11 11:37:32;;;;;;;0.70;0.67;;;;;;;16.28;45.65;94676.16;6909645;28;20753;-71
2021/03/11 11:40:53;;;;;;;1.00;0.60;;;;;;;16.26;45.82;94646.88;6901657;28;20216;-71
2021/03/11 11:44:13;;;;;;;1.53;0.80;;;;;;;16.20;46.18;94655.63;6901175;28;20221;-71
2021/03/11 11:47:33;;;;;;;1.13;0.70;;;;;;;16.15;46.16;94641.97;6911104;28;20227;-71
2021/03/11 11:50:54;;;;;;;0.60;0.60;;;;;;;16.10;46.35;94655.09;6887428;28;20619;-72
2021/03/11 11:54:20;;;;;;;0.80;0.80;;;;;;;16.07;46.67;94646.59;6883770;28;20303;-71
2021/03/11 11:57:41;;;;;;;0.60;0.60;;;;;;;15.91;46.79;94662.81;6880466;28;20841;-71
2021/03/11 12:01:04;;;;;;;0.57;0.57;;;;;;;15.84;47.25;94655.53;6882035;28;20212;-71
2021/03/11 12:04:24;;;;;;;1.13;0.70;;;;;;;15.78;47.59;94650.91;6881185;28;20236;-71
2021/03/11 12:07:45;;;;;;;0.60;0.60;;;;;;;15.71;47.99;94641.94;6874627;28;20272;-71
2021/03/11 12:11:06;;;;;;;1.33;0.53;;;;;;;15.67;47.80;94627.25;6884161;28;20227;-72
2021/03/11 12:14:26;;;;;;;0.80;0.70;;;;;;;15.64;48.04;94616.91;6886323;28;20449;-71
2021/03/11 12:17:49;;;;;;;0.57;0.53;;;;;;;15.64;47.91;94619.59;6886323;28;20287;-70
2021/03/11 12:21:10;;;;;;;0.70;0.70;;;;;;;15.65;48.01;94599.84;6886819;28;20224;-70
2021/03/11 12:24:30;;;;;;;0.73;0.73;;;;;;;15.60;47.71;94578.16;6887415;28;20307;-71
2021/03/11 12:27:53;;;;;;;2.37;0.70;;;;;;;15.53;47.98;94587.09;6886677;28;20308;-71
2021/03/11 12:31:16;;;;;;;0.90;0.70;;;;;;;15.45;48.10;94575.41;6885422;28;20217;-72
2021/03/11 12:34:37;;;;;;;1.53;0.90;;;;;;;15.45;48.45;94583.44;6902201;28;20302;-71
2021/03/11 12:37:57;;;;;;;1.60;1.13;;;;;;;15.45;48.54;94580.78;6864498;28;20228;-72
2021/03/11 12:41:22;;;;;;;0.90;0.80;;;;;;;15.46;48.24;94561.03;6865427;28;20228;-72
2021/03/11 12:44:42;;;;;;;1.17;0.60;;;;;;;15.47;48.30;94553.84;6868769;28;20243;-72
2021/03/11 12:48:03;;;;;;;0.70;0.70;;;;;;;15.46;48.37;94557.53;6892167;28;20217;-72
2021/03/11 12:51:24;;;;;;;0.53;0.50;;;;;;;15.45;48.20;94561.22;6885760;28;20332;-72
2021/03/11 12:54:44;;;;;;;1.13;0.90;;;;;;;15.45;48.31;94572.75;6871111;28;20271;-72
2021/03/11 12:58:04;;;;;;;0.70;0.70;;;;;;;15.44;48.21;94563.06;6872198;28;20278;-72
2021/03/11 13:01:28;;;;;;;0.50;0.50;;;;;;;15.42;48.54;94566.94;6898124;28;20323;-72
2021/03/11 13:04:48;;;;;;;2.53;0.70;;;;;;;15.39;48.86;94564.63;6895390;28;20595;-73
2021/03/11 13:08:11;;;;;;;1.30;0.70;;;;;;;15.35;48.94;94547.25;6901362;28;20697;-71
2021/03/11 13:11:32;;;;;;;3.33;0.70;;;;;;;15.29;49.27;94559.53;6892775;28;20746;-71
2021/03/11 13:14:53;;;;;;;1.87;0.77;;;;;;;15.22;50.67;94552.41;6888361;28;20225;-71
2021/03/11 13:18:13;;;;;;;0.83;0.60;;;;;;;15.03;51.82;94554.59;6875362;28;20640;-71
2021/03/11 13:21:33;;;;;;;1.10;0.80;;;;;;;14.89;53.16;94541.16;6899326;28;20216;-71
2021/03/11 13:24:54;;;;;;;0.97;0.70;;;;;;;14.75;53.64;94566.00;6914623;28;20233;-70
2021/03/11 13:28:14;;;;;;;1.43;0.80;;;;;;;14.66;54.23;94545.69;6918020;28;20690;-71
2021/03/11 13:31:37;;;;;;;0.77;0.70;;;;;;;14.61;54.67;94535.53;6884117;28;20293;-71
2021/03/11 13:34:58;;;;;;;0.97;0.70;;;;;;;14.59;54.34;94537.53;6895735;28;20216;-71
2021/03/11 13:38:21;;;;;;;0.70;0.63;;;;;;;14.56;54.79;94525.38;6893369;28;20216;-71
2021/03/11 13:41:44;;;;;;;0.70;0.70;;;;;;;14.51;54.73;94534.94;6897038;28;20217;-71
2021/03/11 13:45:06;;;;;;;1.33;0.73;;;;;;;14.51;54.59;94533.09;6906670;28;20221;-71
2021/03/11 13:48:28;;;;;;;0.80;0.80;;;;;;;14.54;54.76;94513.19;6896819;28;20228;-71
2021/03/11 13:51:48;;;;;;;1.93;0.80;;;;;;;14.51;53.95;94516.25;6906935;28;20603;-71
2021/03/11 13:55:09;;;;;;;1.47;0.80;;;;;;;14.49;53.62;94511.06;6894932;28;20710;-71
2021/03/11 13:58:30;;;;;;;1.53;0.70;;;;;;;14.48;53.46;94509.44;6905650;28;20228;-71
2021/03/11 14:01:50;;;;;;;0.67;0.63;;;;;;;14.55;53.94;94496.16;6880578;28;20764;-71
2021/03/11 14:05:13;;;;;;;0.70;0.70;;;;;;;14.63;53.99;94492.63;6901929;28;20709;-72
2021/03/11 14:08:33;;;;;;;0.63;0.63;;;;;;;14.66;52.73;94489.56;6909774;28;20227;-72
2021/03/11 14:11:54;;;;;;;0.80;0.77;;;;;;;14.71;53.56;94485.34;6902460;28;20304;-70
2021/03/11 14:15:14;;;;;;;0.80;0.60;;;;;;;14.72;52.38;94476.34;6908724;28;20369;-71
2021/03/11 14:18:35;;;;;;;0.57;0.53;;;;;;;14.73;52.14;94474.50;6907642;28;20251;-70
2021/03/11 14:21:56;;;;;;;0.70;0.50;;;;;;;14.67;51.05;94461.84;6906549;28;20215;-70
2021/03/11 14:25:19;;;;;;;2.17;0.60;;;;;;;14.62;50.90;94443.69;6894997;28;20260;-73
2021/03/11 14:28:39;;;;;;;0.67;0.67;;;;;;;14.82;51.15;94430.66;6900767;28;20254;-74
2021/03/11 14:32:02;;;;;;;0.70;0.70;;;;;;;14.99;51.06;94462.38;6879810;28;20216;-73
2021/03/11 14:35:25;;;;;;;0.57;0.57;;;;;;;14.94;51.32;94456.75;6901783;28;20235;-73
2021/03/11 14:38:45;;;;;;;0.80;0.80;;;;;;;15.00;51.73;94453.34;6894420;28;20709;-73
2021/03/11 14:42:06;;;;;;;1.40;0.80;;;;;;;14.88;52.05;94448.63;6883032;28;20244;-73
2021/03/11 14:45:26;;;;;;;1.30;0.77;;;;;;;14.97;52.49;94480.44;6893169;28;20282;-73
2021/03/11 14:48:47;;;;;;;1.27;0.90;;;;;;;15.02;52.38;94464.69;6883356;28;20306;-74
2021/03/11 14:52:11;;;;;;;1.83;0.70;;;;;;;15.02;52.03;94482.59;6887724;28;20225;-74
2021/03/11 14:55:32;;;;;;;1.73;0.90;;;;;;;14.92;52.63;94471.31;6907219;28;20231;-74
2021/03/11 14:58:54;;;;;;;0.93;0.60;;;;;;;14.83;51.94;94477.75;6882730;28;20304;-73
2021/03/11 15:02:15;;;;;;;1.53;0.90;;;;;;;14.62;52.98;94478.44;6930114;28;20209;-73
2021/03/11 15:05:38;;;;;;;3.00;1.00;;;;;;;14.55;53.53;94480.97;6900097;28;20658;-73
2021/03/11 15:09:02;;;;;;;0.80;0.80;;;;;;;14.47;55.36;94499.75;6878064;28;20209;-73
2021/03/11 15:12:23;;;;;;;1.20;1.10;;;;;;;14.43;56.11;94501.13;6891537;28;20221;-74
2021/03/11 15:15:47;;;;;;;3.57;0.80;;;;;;;14.44;56.23;94521.44;6890478;28;20304;-74
2021/03/11 15:19:08;;;;;;;2.83;1.40;;;;;;;14.46;56.46;94531.97;6908891;28;20271;-75
2021/03/11 15:22:33;;;;;;;5.33;1.10;;;;;;;14.56;57.40;94548.59;6897993;28;20228;-74
2021/03/11 15:25:54;;;;;;;3.37;1.40;;;;;;;14.56;58.53;94551.28;6909094;28;20220;-71
2021/03/11 15:29:16;;;;;;;1.10;1.00;;;;;;;14.29;59.86;94559.75;6897738;28;20215;-72
2021/03/11 15:32:41;;;;;;;1.80;0.70;;;;;;;13.78;63.39;94551.31;6905230;28;20234;-73
2021/03/11 15:36:04;;;;;;;0.90;0.67;;;;;;;13.30;65.39;94550.44;6893771;28;20224;-72
2021/03/11 15:39:25;;;;;;;1.03;0.60;;;;;;;12.75;68.47;94544.13;6894209;28;20278;-72
2021/03/11 15:42:46;;;;;;;0.60;0.60;;;;;;;12.35;71.78;94537.78;6906236;28;20290;-71
2021/03/11 15:46:09;;;;;;;0.53;0.43;;;;;;;12.10;73.95;94545.88;6908234;28;20208;-71
2021/03/11 15:49:30;;;;;;;0.60;0.50;;;;;;;11.97;75.47;94549.81;6904026;28;20282;-71
2021/03/11 15:52:52;;;;;;;1.80;0.60;;;;;;;11.96;76.43;94555.31;6891314;28;20223;-71
2021/03/11 15:56:13;;;;;;;0.63;0.63;;;;;;;11.91;77.00;94560.28;6890516;28;20240;-72